Langley Air Force Base
KLFI : now visible

Airfield :











YOU CAN JOIN US ON...

 
LOGIN :

Register | Disclaimer

   EN    FR    IT 

 









Legend :    VFR   Marginal VFR   IFR   Intensive IFR   Very Intensive IFR
Visi :
Ceiling :
>= 8 km
>= 3000ft
5 to 8 km
1000 to 3000 ft
1500m to 5 km
500 to 1000 ft
800 to 1500m
200 to 500 ft
< 800m
< 200 ft
Symbols :   Thunderstorms  Fog  Heavy snow  Heavy precipitations  Wind > 20 kt






- Airport Elevation : 11 ft


KLFI - Langley Air Force Base

CURRENT METAR :
  • 221456Z 28014G18KT 10SM FEW070 09/M03 A3006 RMK AO2A SLP186 T00931030 58001 $

EXPIRED METARs :
  • 221356Z 26010KT 10SM FEW070 08/M02 A3005 RMK AO2A SLP182 T00831021 $
  • 221256Z 24012KT 10SM CLR 07/M02 A3007 RMK AO2A SLP189 T00701025 $

TAF AMD TAF KLFI
Valid from the 22 at 13:00 until the 23 at 15:00 UTC


221320Z 2213/2315 28012KT 9999 SKC 520009 520901 QNH3005INS
BECMG 2214/2215 29015G25KT 9999 SCT060 540009 540901 QNH3009INS
BECMG 2217/2218 31015G25KT 9999 BKN070 620703 540009 540901 QNH3007INS
BECMG 2222/2223 32012G18KT 9999 SCT080 QNH3006INS
BECMG 2304/2305 28012KT 9999 SKC QNH3010INS TX17/2219Z TN08/2213Z
KZDC FIR / North America



MET'MAP, your aeronautical weather chart ! - Copyright ORBIFLY December 2007 - Disclaimer

ORBIFLY MET'MAP TEAM :

Programming & Development : Alexandra Zaïnal
Concept & original design : Baudouin d'Aumeries
Assistance for programming : Marc-Olivier Méhu
Technical & hardware support : Manuel Goepfert

Contact : metmap@orbifly.com




SOURCES & CREDITS :

   NOAA       Earth
Advisory